Time;durP1;ratioP1;P1;durP2;ratioP2;P2;SDS_P1;SDS_P2;PMS_P1;PMS_P2;Temp;Humidity;BMP_temperature;BMP_pressure;BME280_temperature;BME280_humidity;BME280_pressure;Samples;Min_cycle;Max_cycle;Signal;HPM_P1;HPM_P2
2023/10/27 00:01:43;;;;;;;33.80;20.75;;;9.60;99.90;;;;;;5112450;27;20521;-25
2023/10/27 00:04:09;;;;;;;32.80;19.10;;;9.60;99.90;;;;;;5112691;28;20040;-25
2023/10/27 00:06:34;;;;;;;31.42;19.05;;;9.60;99.90;;;;;;5110825;28;20040;-26
2023/10/27 00:09:01;;;;;;;32.03;18.38;;;9.60;99.90;;;;;;5101382;28;20108;-25
2023/10/27 00:11:27;;;;;;;32.53;19.13;;;9.60;99.90;;;;;;5111842;27;20032;-25
2023/10/27 00:13:54;;;;;;;33.75;19.52;;;9.60;99.90;;;;;;5106825;28;20039;-25
2023/10/27 00:16:19;;;;;;;36.33;19.63;;;9.60;99.90;;;;;;5104304;28;20039;-25
2023/10/27 00:18:45;;;;;;;35.88;21.00;;;9.60;99.90;;;;;;5111904;27;20328;-25
2023/10/27 00:21:11;;;;;;;29.10;18.02;;;9.60;99.90;;;;;;5110064;27;20046;-25
2023/10/27 00:23:37;;;;;;;28.20;17.35;;;9.60;99.90;;;;;;5115606;27;20122;-26
2023/10/27 00:26:03;;;;;;;30.92;18.60;;;9.60;99.90;;;;;;5097308;22;20044;-84
2023/10/27 00:28:38;;;;;;;29.35;17.55;;;9.60;99.90;;;;;;5079290;28;20502;-84
2023/10/27 00:31:05;;;;;;;31.73;18.15;;;9.60;99.90;;;;;;5068084;28;20111;-84
2023/10/27 00:33:31;;;;;;;28.60;18.30;;;9.60;99.90;;;;;;5077024;28;20043;-84
2023/10/27 00:35:57;;;;;;;31.02;18.50;;;9.60;99.90;;;;;;5082060;28;20060;-84
2023/10/27 00:38:23;;;;;;;35.67;19.88;;;9.70;99.90;;;;;;5077177;28;20034;-84
2023/10/27 00:40:54;;;;;;;33.20;18.13;;;9.70;99.90;;;;;;5054274;28;20033;-84
2023/10/27 00:43:23;;;;;;;28.42;17.60;;;9.70;99.90;;;;;;5070993;28;20040;-85
2023/10/27 00:45:50;;;;;;;30.80;17.88;;;9.70;99.90;;;;;;5071620;28;20046;-84
2023/10/27 00:48:20;;;;;;;32.55;19.40;;;9.70;99.90;;;;;;5054810;28;20033;-85
2023/10/27 00:50:47;;;;;;;28.05;16.90;;;9.70;99.90;;;;;;5059492;28;20039;-84
2023/10/27 00:53:17;;;;;;;28.75;17.58;;;9.70;99.90;;;;;;5072161;28;20438;-84
2023/10/27 00:55:43;;;;;;;27.45;17.15;;;9.70;99.90;;;;;;5048189;28;20056;-84
2023/10/27 00:58:09;;;;;;;31.15;17.25;;;9.70;99.90;;;;;;5053867;28;20036;-85
2023/10/27 01:00:36;;;;;;;28.45;17.65;;;9.70;99.90;;;;;;5071824;28;20066;-85
2023/10/27 01:03:02;;;;;;;29.10;17.67;;;9.70;99.90;;;;;;5069121;28;20087;-85
2023/10/27 01:05:28;;;;;;;32.95;18.70;;;9.70;99.90;;;;;;5057101;28;20067;-84
2023/10/27 01:07:55;;;;;;;32.13;18.25;;;9.70;99.90;;;;;;5071384;28;20085;-85
2023/10/27 01:10:21;;;;;;;27.92;17.63;;;9.70;99.90;;;;;;5051199;28;20035;-85
2023/10/27 01:12:50;;;;;;;24.02;15.75;;;9.70;99.90;;;;;;5074326;28;20457;-85
2023/10/27 01:15:17;;;;;;;28.05;17.08;;;9.70;99.90;;;;;;5054565;28;20571;-85
2023/10/27 01:17:43;;;;;;;27.40;16.80;;;9.70;99.90;;;;;;5067935;28;20046;-84
2023/10/27 01:20:10;;;;;;;29.67;17.10;;;9.70;99.90;;;;;;5057168;28;20417;-85
2023/10/27 01:22:48;;;;;;;32.15;18.42;;;9.70;99.90;;;;;;5054595;28;20104;-85
2023/10/27 01:25:15;;;;;;;30.42;17.65;;;9.70;99.90;;;;;;5073560;28;20040;-85
2023/10/27 01:27:41;;;;;;;28.38;15.38;;;9.70;99.90;;;;;;5058083;28;20469;-84
2023/10/27 01:30:08;;;;;;;26.98;15.63;;;9.70;99.90;;;;;;5068167;28;20034;-85
2023/10/27 01:32:35;;;;;;;27.38;16.17;;;9.70;99.90;;;;;;5057098;28;20039;-84
2023/10/27 01:35:00;;;;;;;28.50;16.33;;;9.70;99.90;;;;;;5069522;28;20064;-84
2023/10/27 01:37:26;;;;;;;29.48;17.60;;;9.70;99.90;;;;;;5067332;28;20044;-84
2023/10/27 01:39:52;;;;;;;27.40;16.60;;;9.60;99.90;;;;;;5073520;28;20456;-84
2023/10/27 01:42:17;;;;;;;28.45;17.38;;;9.60;99.90;;;;;;5067611;28;20033;-84
2023/10/27 01:44:43;;;;;;;27.98;16.70;;;9.60;99.90;;;;;;5067888;28;20047;-84
2023/10/27 01:47:09;;;;;;;27.88;16.52;;;9.70;99.90;;;;;;5075510;28;20032;-84
2023/10/27 01:49:35;;;;;;;29.83;17.17;;;9.60;99.90;;;;;;5049915;28;20052;-84
2023/10/27 01:52:03;;;;;;;31.60;18.30;;;9.60;99.90;;;;;;5072312;28;20033;-86
2023/10/27 01:54:29;;;;;;;26.25;16.40;;;9.60;99.90;;;;;;5063467;28;20083;-84
2023/10/27 01:56:55;;;;;;;30.20;16.63;;;9.60;99.90;;;;;;5056314;28;20037;-84
2023/10/27 01:59:20;;;;;;;27.13;16.80;;;9.60;99.90;;;;;;5075245;28;20118;-84
2023/10/27 02:01:46;;;;;;;33.45;18.40;;;9.60;99.90;;;;;;5059755;28;20464;-84
2023/10/27 02:04:12;;;;;;;29.50;16.98;;;9.60;99.90;;;;;;5076466;28;20043;-85
2023/10/27 02:06:37;;;;;;;33.85;18.92;;;9.60;99.90;;;;;;5080050;28;20036;-84
2023/10/27 02:09:12;;;;;;;32.38;18.23;;;9.60;99.90;;;;;;5076531;28;20036;-84
2023/10/27 02:11:38;;;;;;;31.17;17.08;;;9.60;99.90;;;;;;5059844;28;20043;-84
2023/10/27 02:14:03;;;;;;;29.55;17.23;;;9.60;99.90;;;;;;5063375;28;20036;-84
2023/10/27 02:16:29;;;;;;;30.33;17.85;;;9.60;99.90;;;;;;5062374;28;20466;-85
2023/10/27 02:18:54;;;;;;;33.30;18.90;;;9.60;99.90;;;;;;5070564;28;20068;-85
2023/10/27 02:21:20;;;;;;;30.60;17.63;;;9.60;99.90;;;;;;5072288;28;20036;-85
2023/10/27 02:23:46;;;;;;;36.22;19.77;;;9.60;99.90;;;;;;5058946;28;20043;-84
2023/10/27 02:26:13;;;;;;;31.13;18.40;;;9.60;99.90;;;;;;5073590;28;20038;-84
2023/10/27 02:28:39;;;;;;;35.88;19.20;;;9.60;99.90;;;;;;5051141;28;20414;-84
2023/10/27 02:31:05;;;;;;;32.70;18.52;;;9.60;99.90;;;;;;5078858;28;20036;-84
2023/10/27 02:33:30;;;;;;;31.33;18.02;;;9.60;99.90;;;;;;5073398;28;20032;-83
2023/10/27 02:35:56;;;;;;;35.00;19.55;;;9.60;99.90;;;;;;5057188;28;20041;-84
2023/10/27 02:38:22;;;;;;;33.17;19.10;;;9.60;99.90;;;;;;5074649;28;20072;-84
2023/10/27 02:40:47;;;;;;;29.98;16.63;;;9.60;99.90;;;;;;5071229;28;20044;-84
2023/10/27 02:43:13;;;;;;;30.98;17.73;;;9.60;99.90;;;;;;5050809;28;20033;-84
2023/10/27 02:45:39;;;;;;;32.95;19.10;;;9.70;99.90;;;;;;5067132;28;20075;-84
2023/10/27 02:48:05;;;;;;;36.70;18.98;;;9.60;99.90;;;;;;5077325;28;20068;-84
2023/10/27 02:50:36;;;;;;;30.17;18.15;;;9.60;99.90;;;;;;5056497;28;20040;-84
2023/10/27 02:53:02;;;;;;;32.95;18.65;;;9.60;99.90;;;;;;5048548;28;20804;-84
2023/10/27 02:55:28;;;;;;;34.17;18.38;;;9.60;99.90;;;;;;5057148;28;20059;-84
2023/10/27 02:57:53;;;;;;;35.97;19.95;;;9.60;99.90;;;;;;5078948;28;20033;-84
2023/10/27 03:00:19;;;;;;;33.47;19.77;;;9.60;99.90;;;;;;5069158;28;20025;-84
2023/10/27 03:02:45;;;;;;;32.45;20.08;;;9.70;99.90;;;;;;5072162;28;20047;-84
2023/10/27 03:05:10;;;;;;;32.83;17.98;;;9.70;99.90;;;;;;5074029;28;20497;-84
2023/10/27 03:07:37;;;;;;;29.77;17.55;;;9.70;99.90;;;;;;5056706;28;20508;-84
2023/10/27 03:10:02;;;;;;;34.78;18.63;;;9.70;99.90;;;;;;5065387;28;20037;-83
2023/10/27 03:12:28;;;;;;;34.55;18.65;;;9.70;99.90;;;;;;5070519;28;20033;-85
2023/10/27 03:14:53;;;;;;;31.42;17.67;;;9.60;99.90;;;;;;5075209;28;20028;-84
2023/10/27 03:17:20;;;;;;;34.22;20.70;;;9.70;99.90;;;;;;5064888;28;20107;-84
2023/10/27 03:19:45;;;;;;;34.75;18.45;;;9.70;99.90;;;;;;5050270;28;20072;-84
2023/10/27 03:22:11;;;;;;;31.52;18.02;;;9.70;99.90;;;;;;5059995;28;20049;-84
2023/10/27 03:24:37;;;;;;;32.53;18.70;;;9.70;99.90;;;;;;5057422;28;20059;-84
2023/10/27 03:27:03;;;;;;;33.97;18.17;;;9.70;99.90;;;;;;5072627;28;20074;-84
2023/10/27 03:29:29;;;;;;;31.00;18.70;;;9.70;99.90;;;;;;5064708;28;20119;-84
2023/10/27 03:31:54;;;;;;;33.72;18.13;;;9.70;99.90;;;;;;5078118;28;20123;-84
2023/10/27 03:34:20;;;;;;;27.50;16.50;;;9.70;99.90;;;;;;5073263;28;20066;-84
2023/10/27 03:36:46;;;;;;;29.38;17.00;;;9.70;99.90;;;;;;5067951;28;20558;-84
2023/10/27 03:39:12;;;;;;;31.75;17.38;;;9.70;99.90;;;;;;5056751;28;20761;-84
2023/10/27 03:41:38;;;;;;;31.33;17.35;;;9.70;99.90;;;;;;5087053;28;20072;-84
2023/10/27 03:44:04;;;;;;;29.20;17.27;;;9.70;99.90;;;;;;5072664;28;20059;-84
2023/10/27 03:46:30;;;;;;;27.65;16.00;;;9.70;99.90;;;;;;5066570;28;20089;-83
2023/10/27 03:48:55;;;;;;;29.48;17.20;;;9.60;99.90;;;;;;5055348;28;20032;-84
2023/10/27 03:51:21;;;;;;;32.30;17.95;;;9.70;99.90;;;;;;5052735;28;20056;-84
2023/10/27 03:53:47;;;;;;;29.30;16.88;;;9.60;99.90;;;;;;5068987;28;20041;-84
2023/10/27 03:56:13;;;;;;;27.10;16.63;;;9.60;99.90;;;;;;5075554;28;20052;-83
2023/10/27 03:58:38;;;;;;;31.27;17.33;;;9.60;99.90;;;;;;5070128;28;20068;-85
2023/10/27 04:01:05;;;;;;;27.42;15.00;;;9.60;99.90;;;;;;5077145;28;20058;-84
2023/10/27 04:03:31;;;;;;;27.13;16.23;;;9.60;99.90;;;;;;5055748;28;20045;-84
2023/10/27 04:05:59;;;;;;;30.73;17.23;;;9.60;99.90;;;;;;5052999;28;20116;-84
2023/10/27 04:08:28;;;;;;;27.50;16.83;;;9.60;99.90;;;;;;5061203;28;20716;-84
2023/10/27 04:10:53;;;;;;;25.50;15.20;;;9.60;99.90;;;;;;5048841;28;20578;-84
2023/10/27 04:13:19;;;;;;;26.52;14.25;;;9.60;99.90;;;;;;5075304;28;20095;-84
2023/10/27 04:15:45;;;;;;;28.52;16.17;;;9.60;99.90;;;;;;5068750;28;20463;-84
2023/10/27 04:18:11;;;;;;;27.92;15.90;;;9.60;99.90;;;;;;5061055;28;20047;-84
2023/10/27 04:20:38;;;;;;;32.47;16.52;;;9.60;99.90;;;;;;5052016;28;20032;-84
2023/10/27 04:23:04;;;;;;;29.13;16.35;;;9.50;99.90;;;;;;5071377;28;20036;-84
2023/10/27 04:25:30;;;;;;;26.83;15.60;;;9.60;99.90;;;;;;5070123;28;20041;-85
2023/10/27 04:27:55;;;;;;;28.08;15.25;;;9.50;99.90;;;;;;5059931;28;20040;-84
2023/10/27 04:30:21;;;;;;;28.90;15.57;;;9.50;99.90;;;;;;5071869;28;20036;-84
2023/10/27 04:32:47;;;;;;;27.70;15.50;;;9.50;99.90;;;;;;5067412;28;20043;-84
2023/10/27 04:35:13;;;;;;;26.08;16.63;;;9.50;99.90;;;;;;5070554;28;20036;-85
2023/10/27 04:37:39;;;;;;;28.20;15.52;;;9.50;99.90;;;;;;5066843;28;20093;-85
2023/10/27 04:40:05;;;;;;;27.45;15.52;;;9.50;99.90;;;;;;5070563;28;20040;-84
2023/10/27 04:42:31;;;;;;;28.67;16.52;;;9.50;99.90;;;;;;5052011;28;20067;-84
2023/10/27 04:44:57;;;;;;;25.48;14.18;;;9.50;99.90;;;;;;5053093;28;20083;-84
2023/10/27 04:47:22;;;;;;;27.48;14.75;;;9.50;99.90;;;;;;5071978;28;20045;-84
2023/10/27 04:49:48;;;;;;;25.02;14.80;;;9.50;99.90;;;;;;5063587;28;20047;-84
2023/10/27 04:52:13;;;;;;;28.80;15.80;;;9.50;99.90;;;;;;5051816;28;20033;-84
2023/10/27 04:54:39;;;;;;;27.23;15.52;;;9.50;99.90;;;;;;5049441;28;20097;-84
2023/10/27 04:57:05;;;;;;;28.75;15.60;;;9.50;99.90;;;;;;5074322;28;20501;-84
2023/10/27 04:59:34;;;;;;;27.98;14.65;;;9.50;99.90;;;;;;5055164;28;20086;-85
2023/10/27 05:02:00;;;;;;;27.17;14.65;;;9.40;99.90;;;;;;5055062;28;20029;-84
2023/10/27 05:04:28;;;;;;;27.35;14.82;;;9.50;99.90;;;;;;5058019;28;20154;-85
2023/10/27 05:06:53;;;;;;;28.90;16.70;;;9.50;99.90;;;;;;5071172;28;20036;-84
2023/10/27 05:09:19;;;;;;;28.73;15.15;;;9.40;99.90;;;;;;5067400;28;20038;-85
2023/10/27 05:11:49;;;;;;;25.83;15.15;;;9.40;99.90;;;;;;5052683;28;20095;-85
2023/10/27 05:14:14;;;;;;;27.42;15.10;;;9.40;99.90;;;;;;5056093;28;20490;-86
2023/10/27 05:16:41;;;;;;;29.20;16.48;;;9.50;99.90;;;;;;5048418;28;20055;-85
2023/10/27 05:19:07;;;;;;;25.98;14.80;;;9.40;99.90;;;;;;5049378;28;20083;-86
2023/10/27 05:21:33;;;;;;;32.20;17.20;;;9.40;99.90;;;;;;5062860;28;20510;-85
2023/10/27 05:23:59;;;;;;;28.30;16.42;;;9.40;99.90;;;;;;5064978;28;20089;-85
2023/10/27 05:26:25;;;;;;;27.73;16.23;;;9.40;99.90;;;;;;5051533;28;20520;-85
2023/10/27 05:28:52;;;;;;;30.35;17.27;;;9.40;99.90;;;;;;5050044;28;20043;-85
2023/10/27 05:31:17;;;;;;;27.77;15.70;;;9.40;99.90;;;;;;5067725;28;20119;-85
2023/10/27 05:33:43;;;;;;;27.95;16.92;;;9.40;99.90;;;;;;5053464;28;20638;-85
2023/10/27 05:36:11;;;;;;;29.33;17.23;;;9.40;99.90;;;;;;5050979;28;20044;-85
2023/10/27 05:38:37;;;;;;;33.35;18.05;;;9.40;99.90;;;;;;5068237;28;20044;-86
2023/10/27 05:41:03;;;;;;;32.05;16.73;;;9.30;99.90;;;;;;5069841;28;20456;-85
2023/10/27 05:43:29;;;;;;;29.30;17.60;;;9.40;99.90;;;;;;5050020;28;20045;-86
2023/10/27 05:45:55;;;;;;;26.83;16.73;;;9.40;99.90;;;;;;5055677;28;20505;-85
2023/10/27 05:48:26;;;;;;;28.65;16.27;;;9.40;99.90;;;;;;5065525;28;20048;-85
2023/10/27 05:50:52;;;;;;;31.80;16.88;;;9.40;99.90;;;;;;5070330;28;20599;-85
2023/10/27 05:53:20;;;;;;;29.27;16.23;;;9.40;99.90;;;;;;5064291;28;20032;-86
2023/10/27 05:55:46;;;;;;;29.33;17.13;;;9.30;99.90;;;;;;5056473;28;20036;-85
2023/10/27 05:58:17;;;;;;;31.50;17.08;;;9.30;99.90;;;;;;5069203;28;20029;-85
2023/10/27 06:00:47;;;;;;;30.50;16.88;;;9.30;99.90;;;;;;5047107;28;20044;-85
2023/10/27 06:03:13;;;;;;;28.45;16.05;;;9.30;99.90;;;;;;5084548;28;20033;-86
2023/10/27 06:05:40;;;;;;;31.50;16.20;;;9.30;99.90;;;;;;5053420;28;20041;-85
2023/10/27 06:08:05;;;;;;;28.13;17.15;;;9.30;99.90;;;;;;5069487;28;20074;-85
2023/10/27 06:10:31;;;;;;;32.80;17.15;;;9.30;99.90;;;;;;5075735;28;20036;-86
2023/10/27 06:12:57;;;;;;;28.77;16.98;;;9.30;99.90;;;;;;5053880;28;20029;-86
2023/10/27 06:15:22;;;;;;;31.30;16.92;;;9.30;99.90;;;;;;5048518;28;20135;-85
2023/10/27 06:17:51;;;;;;;29.75;16.83;;;9.30;99.90;;;;;;5065874;28;20045;-85
2023/10/27 06:20:16;;;;;;;26.60;15.10;;;9.30;99.90;;;;;;5067798;28;20033;-84
2023/10/27 06:22:45;;;;;;;29.45;16.38;;;9.30;99.90;;;;;;5074248;28;20070;-84
2023/10/27 06:25:29;;;;;;;30.38;16.20;;;9.30;99.90;;;;;;5146991;23;20046;-89
2023/10/27 06:28:21;;;;;;;;;;;9.30;99.90;;;;;;5116877;28;20031;-89
2023/10/27 06:30:51;;;;;;;28.67;16.35;;;9.30;99.90;;;;;;5117630;28;19903;-89
2023/10/27 06:33:20;;;;;;;32.20;16.83;;;9.30;99.90;;;;;;5100859;28;20060;-87
2023/10/27 06:35:55;;;;;;;29.23;16.42;;;9.30;99.90;;;;;;5087733;28;20047;-89
2023/10/27 06:38:51;;;;;;;27.92;15.88;;;9.30;99.90;;;;;;5087709;28;20060;-87
2023/10/27 06:41:16;;;;;;;27.58;16.30;;;9.30;99.90;;;;;;5097177;23;20518;-27
2023/10/27 06:43:43;;;;;;;28.77;15.70;;;9.30;99.90;;;;;;5096032;28;20054;-31
2023/10/27 06:46:08;;;;;;;29.23;16.27;;;9.30;99.90;;;;;;5088155;28;20051;-29
2023/10/27 06:48:34;;;;;;;28.15;15.55;;;9.40;99.90;;;;;;5095460;28;20036;-28
2023/10/27 06:51:00;;;;;;;27.88;16.15;;;9.30;99.90;;;;;;5081798;28;20035;-30
2023/10/27 06:53:25;;;;;;;28.65;15.80;;;9.30;99.90;;;;;;5088190;28;20118;-30
2023/10/27 06:55:51;;;;;;;33.58;15.80;;;9.30;99.90;;;;;;5098545;28;20039;-28
2023/10/27 06:58:17;;;;;;;31.35;16.73;;;9.30;99.90;;;;;;5095671;28;20043;-30
2023/10/27 07:00:42;;;;;;;29.40;16.10;;;9.40;99.90;;;;;;5082908;28;20036;-28
2023/10/27 07:03:08;;;;;;;29.23;16.48;;;9.30;99.90;;;;;;5090446;28;20115;-29
2023/10/27 07:05:34;;;;;;;27.67;15.15;;;9.40;99.90;;;;;;5080702;28;20036;-28
2023/10/27 07:07:59;;;;;;;27.95;15.80;;;9.30;99.90;;;;;;5080556;28;20057;-30
2023/10/27 07:10:25;;;;;;;31.75;16.00;;;9.40;99.90;;;;;;5090069;28;20127;-28
2023/10/27 07:12:51;;;;;;;31.10;17.65;;;9.40;99.90;;;;;;5083371;28;20093;-28
2023/10/27 07:15:19;;;;;;;30.50;16.17;;;9.50;99.90;;;;;;5094589;28;20036;-27
2023/10/27 07:17:45;;;;;;;31.10;16.88;;;9.50;99.90;;;;;;5083961;28;20076;-30
2023/10/27 07:20:11;;;;;;;28.08;16.38;;;9.50;99.90;;;;;;5083306;28;20074;-27
2023/10/27 07:22:36;;;;;;;33.63;16.75;;;9.50;99.90;;;;;;5089885;28;20054;-28
2023/10/27 07:25:04;;;;;;;30.55;15.95;;;9.50;99.90;;;;;;5084732;28;20048;-27
2023/10/27 07:27:29;;;;;;;27.80;16.58;;;9.50;99.90;;;;;;5081493;28;20082;-29
2023/10/27 07:29:55;;;;;;;28.00;15.88;;;9.50;99.90;;;;;;5074265;28;20068;-31
2023/10/27 07:32:21;;;;;;;26.88;15.52;;;9.60;99.90;;;;;;5071499;28;20509;-27
2023/10/27 07:34:48;;;;;;;28.60;16.15;;;9.50;99.90;;;;;;5082598;28;20072;-29
2023/10/27 07:37:14;;;;;;;29.02;16.60;;;9.50;99.90;;;;;;5083455;28;20052;-30
2023/10/27 07:39:40;;;;;;;32.20;17.25;;;9.60;99.90;;;;;;5092163;28;20044;-31
2023/10/27 07:42:07;;;;;;;31.75;16.80;;;9.60;99.90;;;;;;5074873;28;20094;-30
2023/10/27 07:44:33;;;;;;;31.75;16.90;;;9.60;99.90;;;;;;5093643;28;20086;-31
2023/10/27 07:46:59;;;;;;;31.20;16.50;;;9.60;99.90;;;;;;5099021;28;20518;-29
2023/10/27 07:49:25;;;;;;;30.40;17.15;;;9.60;99.90;;;;;;5092322;28;20060;-29
2023/10/27 07:51:50;;;;;;;32.20;17.42;;;9.70;99.90;;;;;;5077483;28;20070;-28
2023/10/27 07:54:16;;;;;;;31.45;17.58;;;9.70;99.90;;;;;;5076184;28;20545;-31
2023/10/27 07:56:42;;;;;;;30.13;17.30;;;9.70;99.90;;;;;;5083251;28;20410;-30
2023/10/27 07:59:08;;;;;;;28.98;16.80;;;9.80;99.90;;;;;;5082397;28;20072;-28
2023/10/27 08:01:34;;;;;;;32.15;17.48;;;9.80;99.90;;;;;;5073599;28;20749;-29
2023/10/27 08:04:02;;;;;;;29.95;17.42;;;9.80;99.90;;;;;;5082347;28;20044;-28
2023/10/27 08:06:29;;;;;;;33.70;17.65;;;9.80;99.90;;;;;;5092639;28;20044;-28
2023/10/27 08:08:55;;;;;;;31.00;17.23;;;9.90;99.90;;;;;;5082181;28;20029;-30
2023/10/27 08:11:21;;;;;;;30.83;16.73;;;9.90;99.90;;;;;;5091758;28;20081;-30
2023/10/27 08:13:47;;;;;;;30.38;16.85;;;10.00;99.90;;;;;;5100636;28;20055;-28
2023/10/27 08:16:15;;;;;;;27.50;17.00;;;10.00;99.90;;;;;;5086373;28;20040;-28
2023/10/27 08:18:41;;;;;;;29.75;16.33;;;10.00;99.90;;;;;;5084953;28;20421;-28
2023/10/27 08:21:07;;;;;;;30.35;16.77;;;10.10;99.90;;;;;;5085562;28;20044;-29
2023/10/27 08:23:33;;;;;;;28.30;16.52;;;10.10;99.90;;;;;;5078737;28;20824;-30
2023/10/27 08:25:59;;;;;;;27.35;16.60;;;10.10;99.90;;;;;;5089156;28;20036;-28
2023/10/27 08:28:24;;;;;;;27.23;16.17;;;10.20;99.90;;;;;;5074509;28;20074;-28
2023/10/27 08:30:50;;;;;;;26.88;15.93;;;10.20;99.90;;;;;;5076029;28;20444;-28
2023/10/27 08:33:16;;;;;;;25.92;15.80;;;10.20;99.90;;;;;;5082125;28;20048;-32
2023/10/27 08:35:42;;;;;;;28.40;15.90;;;10.20;99.90;;;;;;5092039;28;20478;-31
2023/10/27 08:38:08;;;;;;;29.60;16.00;;;10.20;99.90;;;;;;5090778;28;20074;-31
2023/10/27 08:40:34;;;;;;;26.48;15.85;;;10.20;99.90;;;;;;5090091;28;20036;-29
2023/10/27 08:43:03;;;;;;;24.13;14.88;;;10.20;99.90;;;;;;5085211;28;20036;-31
2023/10/27 08:45:29;;;;;;;27.08;15.02;;;10.20;99.90;;;;;;5077493;28;20052;-28
2023/10/27 08:47:55;;;;;;;28.50;15.63;;;10.20;99.90;;;;;;5078811;28;20467;-29
2023/10/27 08:50:21;;;;;;;27.35;15.98;;;10.20;99.90;;;;;;5087560;28;20054;-29
2023/10/27 08:52:48;;;;;;;28.90;16.05;;;10.30;99.90;;;;;;5081023;28;20067;-29
2023/10/27 08:55:15;;;;;;;24.20;14.32;;;10.20;99.90;;;;;;5076494;28;20490;-28
2023/10/27 08:57:41;;;;;;;26.40;15.15;;;10.30;99.90;;;;;;5082688;28;20036;-31
2023/10/27 09:00:07;;;;;;;27.45;16.92;;;10.30;99.90;;;;;;5075292;28;21335;-28
2023/10/27 09:02:35;;;;;;;26.52;15.90;;;10.30;99.90;;;;;;5078487;28;20043;-30
2023/10/27 09:05:06;;;;;;;26.25;15.57;;;10.30;99.90;;;;;;5074743;28;20032;-32
2023/10/27 09:07:33;;;;;;;26.33;16.25;;;10.30;99.90;;;;;;5074620;28;20048;-31
2023/10/27 09:10:00;;;;;;;25.27;14.88;;;10.40;99.90;;;;;;5084412;28;20079;-29
2023/10/27 09:12:29;;;;;;;23.45;14.05;;;10.40;99.90;;;;;;5093967;28;20082;-32
2023/10/27 09:15:06;;;;;;;24.88;15.40;;;10.40;99.90;;;;;;5073077;28;20040;-30
2023/10/27 09:18:25;;;;;;;27.08;15.20;;;10.40;99.90;;;;;;5091813;28;20035;-32
2023/10/27 09:20:52;;;;;;;21.63;13.38;;;10.40;99.90;;;;;;5094773;28;20498;-28
2023/10/27 09:23:19;;;;;;;22.50;14.02;;;10.40;99.90;;;;;;5083228;28;20048;-30
2023/10/27 09:25:46;;;;;;;23.38;13.98;;;10.40;99.90;;;;;;5079131;28;20048;-31
2023/10/27 09:28:13;;;;;;;27.52;15.90;;;10.40;99.90;;;;;;5093683;28;20051;-28
2023/10/27 09:30:43;;;;;;;24.23;14.45;;;10.40;99.90;;;;;;5094397;28;20118;-30
2023/10/27 09:33:13;;;;;;;23.00;14.10;;;10.50;99.90;;;;;;5101111;28;20024;-30
2023/10/27 09:35:40;;;;;;;22.83;14.60;;;10.50;99.90;;;;;;5081876;28;20131;-30
2023/10/27 09:38:06;;;;;;;23.38;14.45;;;10.50;99.90;;;;;;5088516;28;20122;-30
2023/10/27 09:40:40;;;;;;;25.00;14.63;;;10.50;99.90;;;;;;5093171;28;20043;-32
2023/10/27 09:43:21;;;;;;;26.65;15.07;;;10.50;99.90;;;;;;5085765;28;20053;-30
2023/10/27 09:45:53;;;;;;;23.60;14.48;;;10.50;99.90;;;;;;5083044;28;20574;-30
2023/10/27 09:48:27;;;;;;;23.88;14.43;;;10.50;99.90;;;;;;5083006;28;20032;-29
2023/10/27 09:51:04;;;;;;;24.40;14.73;;;10.50;99.90;;;;;;5077853;28;20048;-31
2023/10/27 09:53:31;;;;;;;24.48;14.13;;;10.50;99.90;;;;;;5085601;28;20541;-30
2023/10/27 09:55:58;;;;;;;22.48;13.30;;;10.50;99.90;;;;;;5087393;28;20048;-29
2023/10/27 09:58:35;;;;;;;24.83;14.27;;;10.50;99.90;;;;;;5085544;28;20199;-30
2023/10/27 10:01:02;;;;;;;21.98;13.85;;;10.60;99.90;;;;;;5100046;28;20068;-28
2023/10/27 10:03:28;;;;;;;23.35;13.82;;;10.60;99.90;;;;;;5092940;28;20044;-28
2023/10/27 10:06:12;;;;;;;23.77;14.13;;;10.60;99.90;;;;;;5093591;28;20108;-31
2023/10/27 10:08:38;;;;;;;25.35;15.18;;;10.60;99.90;;;;;;5088834;28;20041;-31
2023/10/27 10:11:19;;;;;;;24.10;14.07;;;10.60;99.90;;;;;;5076480;28;20044;-31
2023/10/27 10:13:46;;;;;;;23.23;14.07;;;10.70;99.90;;;;;;5090228;28;20067;-28
2023/10/27 10:16:12;;;;;;;23.13;13.85;;;10.70;99.90;;;;;;5081038;28;20036;-31
2023/10/27 10:18:44;;;;;;;21.08;13.52;;;10.70;99.90;;;;;;5082120;28;20042;-30
2023/10/27 10:21:09;;;;;;;22.58;14.10;;;10.70;99.90;;;;;;5083463;28;20107;-31
2023/10/27 10:23:38;;;;;;;22.77;14.00;;;10.80;99.90;;;;;;5083863;28;20178;-30
2023/10/27 10:26:05;;;;;;;23.60;15.60;;;10.70;99.90;;;;;;5092422;28;20044;-30
2023/10/27 10:28:36;;;;;;;25.05;14.68;;;10.70;99.90;;;;;;5094103;28;20036;-31
2023/10/27 10:31:07;;;;;;;24.35;15.25;;;10.70;99.90;;;;;;5092026;28;20115;-30
2023/10/27 10:33:35;;;;;;;26.27;15.48;;;10.80;99.90;;;;;;5085304;28;20032;-29
2023/10/27 10:36:22;;;;;;;23.90;15.00;;;10.80;99.90;;;;;;5082069;28;20024;-31
2023/10/27 10:38:53;;;;;;;23.98;14.98;;;10.80;99.90;;;;;;5093330;28;20044;-27
2023/10/27 10:41:19;;;;;;;24.50;16.92;;;10.80;99.90;;;;;;5091541;28;20036;-31
2023/10/27 10:44:06;;;;;;;25.33;15.55;;;10.80;99.90;;;;;;5089089;28;20070;-31
2023/10/27 10:46:32;;;;;;;23.75;15.55;;;10.90;99.90;;;;;;5093586;28;20115;-29
2023/10/27 10:48:57;;;;;;;23.15;15.45;;;10.80;99.90;;;;;;5086569;28;20075;-29
2023/10/27 10:51:30;;;;;;;25.20;16.70;;;10.80;99.90;;;;;;5088304;28;20035;-30
2023/10/27 10:53:56;;;;;;;27.05;16.67;;;10.90;99.90;;;;;;5088810;28;20040;-30
2023/10/27 10:56:24;;;;;;;28.67;16.23;;;10.90;99.90;;;;;;5089852;28;20090;-32
2023/10/27 10:58:50;;;;;;;25.33;16.75;;;10.90;99.90;;;;;;5075259;28;20043;-33
2023/10/27 11:01:20;;;;;;;25.58;16.23;;;10.90;99.90;;;;;;5087831;28;20037;-29
2023/10/27 11:03:55;;;;;;;24.38;15.77;;;10.90;99.90;;;;;;5090240;28;20078;-34
2023/10/27 11:06:27;;;;;;;27.08;16.45;;;10.90;99.90;;;;;;5097470;28;20063;-30
2023/10/27 11:08:53;;;;;;;25.45;16.70;;;11.00;99.90;;;;;;5098840;28;20044;-28
2023/10/27 11:11:19;;;;;;;25.50;16.15;;;11.00;99.90;;;;;;5089563;28;20029;-28
2023/10/27 11:13:51;;;;;;;23.98;16.35;;;11.00;99.90;;;;;;5082611;28;20036;-28
2023/10/27 11:16:21;;;;;;;27.25;17.65;;;11.00;99.90;;;;;;5096488;28;20441;-28
2023/10/27 11:18:49;;;;;;;25.20;16.17;;;11.00;99.90;;;;;;5097645;28;20050;-28
2023/10/27 11:21:19;;;;;;;23.58;15.75;;;11.00;99.90;;;;;;5088683;28;20145;-29
2023/10/27 11:23:50;;;;;;;25.35;16.83;;;11.00;99.90;;;;;;5088104;28;20558;-29
2023/10/27 11:26:19;;;;;;;24.42;15.15;;;11.00;99.90;;;;;;5084128;28;20496;-31
2023/10/27 11:28:46;;;;;;;23.95;16.40;;;11.00;99.90;;;;;;5102222;28;20039;-28
2023/10/27 11:31:15;;;;;;;25.83;17.33;;;11.00;99.90;;;;;;5098037;28;20028;-30
2023/10/27 11:34:07;;;;;;;24.10;15.60;;;11.00;99.90;;;;;;5080995;28;20558;-28
2023/10/27 11:36:34;;;;;;;22.63;14.93;;;11.00;99.90;;;;;;5082409;28;20045;-29
2023/10/27 11:39:17;;;;;;;24.85;17.35;;;11.00;99.90;;;;;;5095649;28;20387;-28
2023/10/27 11:41:50;;;;;;;27.88;16.60;;;11.00;99.90;;;;;;5090635;28;20044;-28
2023/10/27 11:44:17;;;;;;;25.58;17.08;;;11.00;99.90;;;;;;5075054;28;20132;-27
2023/10/27 11:46:47;;;;;;;25.95;16.77;;;11.00;99.90;;;;;;5104841;28;20039;-29
2023/10/27 11:49:14;;;;;;;24.13;15.75;;;11.10;99.90;;;;;;5085473;28;20041;-28
2023/10/27 11:51:43;;;;;;;24.55;16.58;;;11.10;99.90;;;;;;5094835;28;20032;-32
2023/10/27 11:54:09;;;;;;;23.73;15.93;;;11.10;99.90;;;;;;5080278;28;20536;-28
2023/10/27 11:56:34;;;;;;;25.02;15.82;;;11.10;99.90;;;;;;5081673;28;20112;-32
2023/10/27 11:59:00;;;;;;;25.30;16.73;;;11.10;99.90;;;;;;5101935;28;20053;-30
2023/10/27 12:01:26;;;;;;;22.10;15.65;;;11.10;99.90;;;;;;5090772;28;20088;-29
2023/10/27 12:03:51;;;;;;;23.35;16.13;;;11.10;99.90;;;;;;5095928;28;20039;-28
2023/10/27 12:06:17;;;;;;;21.50;15.73;;;11.10;99.90;;;;;;5087372;28;20486;-28
2023/10/27 12:08:43;;;;;;;22.83;15.00;;;11.10;99.90;;;;;;5078517;28;20109;-31
2023/10/27 12:11:09;;;;;;;21.08;14.90;;;11.10;99.90;;;;;;5088169;28;20545;-29
2023/10/27 12:13:34;;;;;;;24.25;15.85;;;11.00;99.90;;;;;;5088481;28;20072;-28
2023/10/27 12:16:00;;;;;;;19.77;14.43;;;11.10;99.90;;;;;;5079828;28;20036;-29
2023/10/27 12:18:27;;;;;;;20.23;14.30;;;11.10;99.90;;;;;;5082388;28;20051;-28
2023/10/27 12:20:52;;;;;;;20.05;14.13;;;11.10;99.90;;;;;;5089579;28;20395;-28
2023/10/27 12:23:18;;;;;;;21.70;14.65;;;11.10;99.90;;;;;;5090272;28;20032;-28
2023/10/27 12:25:44;;;;;;;19.73;13.82;;;11.10;99.90;;;;;;5099127;28;20049;-29
2023/10/27 12:28:10;;;;;;;20.50;13.73;;;11.00;99.90;;;;;;5081894;28;20032;-31
2023/10/27 12:30:36;;;;;;;20.83;13.85;;;11.00;99.90;;;;;;5100934;28;20321;-30
2023/10/27 12:33:05;;;;;;;19.40;14.13;;;11.00;99.90;;;;;;5082106;28;20086;-28
2023/10/27 12:35:34;;;;;;;18.42;13.60;;;11.00;99.90;;;;;;5082519;28;20032;-28